createdAt,value
2022-11-25T00:00:25.857Z,7.22
2022-11-25T00:01:13.590Z,10.25
2022-11-25T00:01:45.167Z,7.23
2022-11-25T00:02:16.650Z,8.43
2022-11-25T00:02:48.309Z,7.85
2022-11-25T00:03:19.853Z,8.63
2022-11-25T00:03:52.090Z,9.48
2022-11-25T00:04:23.502Z,8.20
2022-11-25T00:04:54.862Z,8.65
2022-11-25T00:05:26.329Z,9.55
2022-11-25T00:05:57.794Z,7.78
2022-11-25T00:06:33.579Z,10.35
2022-11-25T00:07:05.010Z,10.25
2022-11-25T00:07:36.642Z,8.98
2022-11-25T00:08:08.108Z,7.72
2022-11-25T00:08:39.904Z,9.60
2022-11-25T00:09:11.950Z,7.67
2022-11-25T00:09:43.327Z,8.88
2022-11-25T00:10:14.662Z,8.32
2022-11-25T00:10:46.097Z,7.60
2022-11-25T00:11:17.950Z,7.47
2022-11-25T00:11:49.332Z,6.45
2022-11-25T00:12:20.885Z,7.13
2022-11-25T00:12:52.332Z,6.28
2022-11-25T00:13:23.744Z,6.38
2022-11-25T00:13:55.962Z,7.65
2022-11-25T00:14:27.453Z,6.85
2022-11-25T00:14:58.894Z,6.73
2022-11-25T00:15:30.261Z,6.88
2022-11-25T00:16:08.634Z,7.03
2022-11-25T00:16:45.008Z,5.65
2022-11-25T00:17:19.270Z,5.80
2022-11-25T00:17:51.476Z,7.43
2022-11-25T00:18:22.937Z,6.20
2022-11-25T00:18:55.395Z,6.15
2022-11-25T00:19:26.827Z,6.80
2022-11-25T00:19:58.254Z,6.40
2022-11-25T00:20:29.686Z,5.88
2022-11-25T00:21:08.343Z,6.68
2022-11-25T00:21:39.789Z,7.20
2022-11-25T00:22:11.213Z,6.88
2022-11-25T00:22:42.656Z,6.63
2022-11-25T00:23:14.094Z,5.93
2022-11-25T00:23:49.983Z,6.65
2022-11-25T00:24:21.366Z,5.53
2022-11-25T00:24:52.805Z,5.60
2022-11-25T00:25:24.256Z,8.18
2022-11-25T00:25:55.729Z,5.47
2022-11-25T00:26:28.246Z,6.15
2022-11-25T00:26:59.642Z,5.50
2022-11-25T00:27:31.179Z,5.72
2022-11-25T00:28:02.668Z,6.20
2022-11-25T00:28:34.051Z,6.40
2022-11-25T00:29:06.314Z,5.65
2022-11-25T00:29:37.704Z,6.45
2022-11-25T00:30:09.398Z,6.22
2022-11-25T00:30:40.927Z,5.03
2022-11-25T00:31:13.974Z,6.40
2022-11-25T00:31:45.398Z,4.93
2022-11-25T00:32:16.810Z,7.25
2022-11-25T00:32:48.206Z,5.22
2022-11-25T00:33:19.720Z,6.28
2022-11-25T00:33:51.735Z,6.50
2022-11-25T00:34:23.145Z,6.35
2022-11-25T00:34:54.571Z,6.80
2022-11-25T00:35:26.018Z,5.82
2022-11-25T00:35:59.906Z,6.32
2022-11-25T00:36:36.116Z,5.77
2022-11-25T00:37:07.491Z,6.07
2022-11-25T00:37:38.920Z,6.57
2022-11-25T00:38:10.342Z,5.72
2022-11-25T00:38:41.790Z,5.97
2022-11-25T00:39:14.523Z,5.47
2022-11-25T00:39:46.004Z,5.32
2022-11-25T00:40:17.391Z,5.97
2022-11-25T00:40:52.333Z,5.63
2022-11-25T00:41:24.169Z,5.85
2022-11-25T00:41:55.644Z,5.68
2022-11-25T00:42:27.067Z,7.00
2022-11-25T00:42:58.520Z,7.25
2022-11-25T00:43:30.008Z,6.88
2022-11-25T00:44:01.497Z,5.22
2022-11-25T00:44:33.210Z,4.53
2022-11-25T00:45:05.148Z,5.82
2022-11-25T00:45:36.703Z,6.43
2022-11-25T00:46:08.165Z,5.65
2022-11-25T00:46:39.645Z,5.68
2022-11-25T00:47:12.451Z,4.97
2022-11-25T00:47:43.858Z,5.60
2022-11-25T00:48:15.311Z,4.90
2022-11-25T00:48:46.830Z,5.65
2022-11-25T00:49:18.275Z,5.45
2022-11-25T00:49:50.891Z,5.38
2022-11-25T00:50:22.245Z,5.32
2022-11-25T00:50:53.648Z,6.00
2022-11-25T00:51:25.101Z,4.45
2022-11-25T00:51:56.591Z,4.40
2022-11-25T00:52:27.927Z,5.38
2022-11-25T00:52:59.364Z,5.40
2022-11-25T00:53:31.054Z,6.38
2022-11-25T00:54:02.606Z,4.82
2022-11-25T00:54:34.870Z,5.10
2022-11-25T00:55:06.593Z,5.20
2022-11-25T00:55:37.974Z,6.40
2022-11-25T00:56:09.380Z,6.03
2022-11-25T00:56:41.078Z,5.55
2022-11-25T00:57:12.536Z,5.17
2022-11-25T00:57:43.984Z,5.55
2022-11-25T00:58:15.406Z,5.53
2022-11-25T00:58:46.879Z,5.05
2022-11-25T00:59:18.353Z,6.72
2022-11-25T00:59:49.783Z,5.80
2022-11-25T01:00:21.174Z,6.90
2022-11-25T01:00:52.590Z,5.05
2022-11-25T01:01:24.238Z,5.20
2022-11-25T01:01:55.700Z,5.32
2022-11-25T01:02:27.383Z,5.50
2022-11-25T01:02:58.817Z,6.18
2022-11-25T01:03:30.219Z,5.47
2022-11-25T01:04:01.590Z,6.00
2022-11-25T01:04:33.349Z,4.45
2022-11-25T01:05:05.230Z,5.95
2022-11-25T01:05:36.686Z,5.35
2022-11-25T01:06:09.849Z,5.05
2022-11-25T01:06:41.501Z,4.85
2022-11-25T01:07:13.002Z,5.70
2022-11-25T01:07:44.594Z,5.95
2022-11-25T01:08:16.110Z,4.93
2022-11-25T01:08:47.867Z,5.55
2022-11-25T01:09:19.348Z,5.68
2022-11-25T01:09:50.829Z,6.43
2022-11-25T01:10:22.229Z,5.22
2022-11-25T01:11:00.101Z,5.72
2022-11-25T01:11:31.842Z,5.15
2022-11-25T01:12:03.814Z,5.68
2022-11-25T01:12:35.259Z,4.82
2022-11-25T01:13:06.724Z,6.68
2022-11-25T01:13:38.136Z,4.97
2022-11-25T01:14:09.558Z,4.97
2022-11-25T01:14:41.081Z,4.93
2022-11-25T01:15:12.496Z,5.43
2022-11-25T01:15:43.910Z,3.92
2022-11-25T01:16:19.742Z,4.88
2022-11-25T01:16:51.602Z,5.17
2022-11-25T01:17:23.033Z,4.85
2022-11-25T01:17:54.495Z,4.70
2022-11-25T01:18:25.970Z,4.55
2022-11-25T01:19:00.686Z,4.47
2022-11-25T01:19:32.080Z,4.78
2022-11-25T01:20:03.673Z,5.35
2022-11-25T01:20:35.107Z,5.97
2022-11-25T01:21:11.115Z,5.57
2022-11-25T01:21:42.571Z,5.45
2022-11-25T01:22:14.060Z,5.68
2022-11-25T01:22:45.517Z,5.32
2022-11-25T01:23:16.931Z,5.30
2022-11-25T01:23:48.955Z,4.82
2022-11-25T01:24:20.365Z,5.32
2022-11-25T01:24:51.810Z,6.50
2022-11-25T01:25:23.246Z,4.88
2022-11-25T01:25:54.749Z,5.28
2022-11-25T01:26:26.237Z,4.80
2022-11-25T01:26:57.645Z,5.32
2022-11-25T01:27:29.061Z,4.90
2022-11-25T01:28:00.458Z,5.93
2022-11-25T01:28:32.246Z,4.78
2022-11-25T01:29:04.816Z,5.13
2022-11-25T01:29:36.281Z,5.53
2022-11-25T01:30:07.983Z,4.47
2022-11-25T01:30:41.293Z,5.80
2022-11-25T01:31:15.096Z,5.20
2022-11-25T01:31:47.165Z,5.15
2022-11-25T01:32:18.715Z,4.47
2022-11-25T01:32:50.229Z,4.55
2022-11-25T01:33:21.677Z,4.78
2022-11-25T01:34:03.942Z,4.68
2022-11-25T01:34:35.713Z,5.43
2022-11-25T01:35:07.648Z,5.13
2022-11-25T01:35:39.041Z,5.93
2022-11-25T01:36:15.290Z,4.22
2022-11-25T01:36:47.082Z,4.68
2022-11-25T01:37:18.470Z,4.90
2022-11-25T01:37:49.925Z,4.53
2022-11-25T01:38:21.408Z,4.45
2022-11-25T01:38:54.324Z,4.70
2022-11-25T01:39:32.095Z,4.68
2022-11-25T01:40:04.680Z,4.80
2022-11-25T01:40:36.116Z,4.45
2022-11-25T01:41:11.758Z,5.18
2022-11-25T01:41:43.195Z,3.92
2022-11-25T01:42:14.611Z,4.63
2022-11-25T01:42:46.730Z,6.07
2022-11-25T01:43:18.160Z,5.30
2022-11-25T01:44:03.837Z,5.85
2022-11-25T01:44:36.370Z,6.17
2022-11-25T01:45:30.637Z,5.15
2022-11-25T01:46:20.884Z,5.20
2022-11-25T01:46:52.385Z,4.53
2022-11-25T01:47:23.904Z,4.78
2022-11-25T01:47:58.891Z,4.85
2022-11-25T01:48:42.769Z,4.90
2022-11-25T01:49:17.066Z,4.65
2022-11-25T01:49:54.548Z,5.35
2022-11-25T01:50:27.094Z,4.60
2022-11-25T01:50:59.239Z,4.93
2022-11-25T01:51:36.809Z,4.50
2022-11-25T01:52:10.850Z,4.63
2022-11-25T01:52:45.154Z,5.53
2022-11-25T01:53:19.222Z,4.50
2022-11-25T01:53:51.078Z,4.65
2022-11-25T01:54:24.029Z,4.43
2022-11-25T01:54:57.065Z,5.15
2022-11-25T01:55:29.609Z,5.68
2022-11-25T01:56:03.500Z,4.88
2022-11-25T01:56:38.685Z,5.03
2022-11-25T01:57:13.800Z,4.07
2022-11-25T01:57:45.201Z,5.13
2022-11-25T01:58:18.495Z,3.63
2022-11-25T01:58:50.071Z,5.07
2022-11-25T01:59:21.612Z,5.40
2022-11-25T01:59:55.855Z,5.03
2022-11-25T02:00:27.288Z,4.35
2022-11-25T02:00:58.820Z,4.70
2022-11-25T02:01:30.687Z,4.10
2022-11-25T02:02:02.423Z,4.18
2022-11-25T02:02:34.170Z,4.70
2022-11-25T02:03:06.374Z,5.07
2022-11-25T02:03:40.361Z,5.38
2022-11-25T02:04:13.617Z,5.38
2022-11-25T02:04:46.320Z,3.77
2022-11-25T02:05:19.439Z,4.55
2022-11-25T02:05:53.907Z,4.95
2022-11-25T02:06:27.295Z,4.82
2022-11-25T02:07:01.131Z,6.22
2022-11-25T02:07:37.122Z,4.88
2022-11-25T02:08:09.640Z,3.90
2022-11-25T02:08:42.775Z,4.25
2022-11-25T02:09:14.430Z,4.90
2022-11-25T02:09:45.951Z,4.55
2022-11-25T02:10:27.109Z,4.63
2022-11-25T02:11:00.800Z,4.28
2022-11-25T02:11:33.264Z,4.28
2022-11-25T02:12:05.171Z,4.65
2022-11-25T02:12:38.657Z,3.97
2022-11-25T02:13:10.543Z,4.32
2022-11-25T02:13:42.298Z,5.28
2022-11-25T02:14:14.556Z,5.00
2022-11-25T02:14:46.552Z,4.45
2022-11-25T02:15:18.095Z,4.25
2022-11-25T02:15:49.748Z,4.93
2022-11-25T02:16:21.207Z,4.60
2022-11-25T02:16:52.930Z,4.22
2022-11-25T02:17:24.769Z,4.55
2022-11-25T02:17:56.361Z,3.92
2022-11-25T02:18:28.003Z,4.18
2022-11-25T02:18:59.473Z,5.13
2022-11-25T02:19:38.645Z,3.75
2022-11-25T02:20:14.904Z,4.03
2022-11-25T02:20:46.318Z,4.18
2022-11-25T02:21:20.581Z,4.85
2022-11-25T02:21:54.667Z,5.72
2022-11-25T02:22:32.777Z,4.57
2022-11-25T02:23:04.167Z,4.57
2022-11-25T02:23:35.607Z,5.15
2022-11-25T02:24:27.258Z,5.25
2022-11-25T02:25:02.025Z,4.90
2022-11-25T02:25:35.045Z,4.50
2022-11-25T02:26:06.541Z,3.70
2022-11-25T02:26:38.286Z,4.00
2022-11-25T02:27:09.737Z,4.15
2022-11-25T02:27:43.008Z,6.05
2022-11-25T02:28:16.152Z,3.85
2022-11-25T02:28:48.025Z,3.42
2022-11-25T02:29:19.921Z,4.47
2022-11-25T02:29:51.822Z,4.47
2022-11-25T02:30:23.381Z,3.60
2022-11-25T02:30:54.847Z,3.95
2022-11-25T02:31:26.398Z,4.18
2022-11-25T02:31:57.810Z,4.10
2022-11-25T02:32:29.219Z,3.55
2022-11-25T02:33:01.283Z,3.53
2022-11-25T02:33:32.753Z,4.38
2022-11-25T02:34:04.089Z,4.38
2022-11-25T02:34:35.850Z,4.60
2022-11-25T02:35:23.726Z,4.50
2022-11-25T02:35:56.731Z,5.10
2022-11-25T02:36:28.163Z,4.95
2022-11-25T02:36:59.976Z,3.70
2022-11-25T02:37:31.509Z,4.60
2022-11-25T02:38:10.641Z,3.90
2022-11-25T02:38:54.309Z,4.60
2022-11-25T02:39:25.777Z,3.55
2022-11-25T02:39:57.228Z,4.97
2022-11-25T02:40:29.320Z,4.43
2022-11-25T02:41:10.847Z,3.90
2022-11-25T02:41:44.291Z,4.15
2022-11-25T02:42:16.039Z,4.43
2022-11-25T02:42:48.648Z,4.95
2022-11-25T02:43:20.084Z,4.80
2022-11-25T02:43:51.870Z,4.78
2022-11-25T02:44:23.347Z,5.82
2022-11-25T02:44:54.814Z,3.23
2022-11-25T02:45:31.725Z,3.60
2022-11-25T02:46:03.348Z,4.20
2022-11-25T02:46:35.153Z,4.97
2022-11-25T02:47:06.593Z,3.67
2022-11-25T02:47:37.974Z,3.53
2022-11-25T02:48:09.373Z,5.07
2022-11-25T02:49:10.710Z,3.75
2022-11-25T02:49:33.279Z,3.83
2022-11-25T02:50:05.400Z,5.22
2022-11-25T02:50:36.815Z,3.95
2022-11-25T02:51:09.804Z,3.92
2022-11-25T02:51:42.259Z,3.35
2022-11-25T02:52:13.732Z,3.85
2022-11-25T02:52:45.230Z,4.75
2022-11-25T02:53:16.769Z,4.03
2022-11-25T02:53:48.500Z,3.90
2022-11-25T02:54:20.007Z,5.20
2022-11-25T02:54:51.414Z,4.25
2022-11-25T02:55:22.933Z,3.63
2022-11-25T02:55:54.461Z,4.70
2022-11-25T02:56:27.497Z,4.07
2022-11-25T02:56:59.000Z,3.10
2022-11-25T02:57:30.422Z,4.53
2022-11-25T02:58:01.855Z,4.90
2022-11-25T02:58:33.284Z,4.35
2022-11-25T02:59:04.995Z,4.30
2022-11-25T02:59:36.422Z,3.92
2022-11-25T03:00:08.087Z,4.28
2022-11-25T03:00:40.059Z,5.28
2022-11-25T03:01:11.746Z,4.57
2022-11-25T03:01:43.354Z,3.92
2022-11-25T03:02:14.820Z,3.55
2022-11-25T03:02:46.533Z,4.38
2022-11-25T03:03:18.034Z,3.55
2022-11-25T03:03:49.483Z,3.95
2022-11-25T03:04:20.966Z,3.28
2022-11-25T03:04:52.393Z,3.47
2022-11-25T03:05:24.142Z,4.05
2022-11-25T03:05:55.740Z,4.07
2022-11-25T03:06:27.518Z,4.72
2022-11-25T03:07:00.997Z,4.72
2022-11-25T03:07:32.441Z,3.55
2022-11-25T03:08:04.239Z,4.63
2022-11-25T03:08:35.978Z,4.10
2022-11-25T03:09:07.510Z,3.90
2022-11-25T03:09:38.927Z,3.40
2022-11-25T03:10:10.580Z,4.38
2022-11-25T03:10:42.035Z,3.67
2022-11-25T03:11:13.423Z,3.45
2022-11-25T03:11:44.820Z,3.88
2022-11-25T03:12:16.241Z,4.28
2022-11-25T03:12:47.910Z,3.15
2022-11-25T03:13:19.381Z,3.50
2022-11-25T03:13:50.814Z,4.00
2022-11-25T03:14:22.248Z,3.17
2022-11-25T03:14:53.652Z,3.70
2022-11-25T03:15:25.076Z,4.30
2022-11-25T03:15:56.612Z,3.70
2022-11-25T03:16:28.150Z,3.85
2022-11-25T03:16:59.680Z,3.75
2022-11-25T03:17:31.190Z,3.25
2022-11-25T03:18:03.556Z,4.57
2022-11-25T03:18:35.030Z,3.83
2022-11-25T03:19:06.581Z,3.85
2022-11-25T03:19:38.012Z,3.42
2022-11-25T03:20:10.106Z,3.95
2022-11-25T03:20:41.554Z,4.15
2022-11-25T03:21:12.995Z,3.88
2022-11-25T03:21:44.481Z,4.47
2022-11-25T03:22:15.970Z,4.70
2022-11-25T03:22:47.752Z,3.42
2022-11-25T03:23:19.313Z,4.43
2022-11-25T03:23:52.483Z,3.93
2022-11-25T03:24:23.868Z,3.60
2022-11-25T03:24:57.850Z,3.55
2022-11-25T03:25:29.300Z,3.08
2022-11-25T03:26:04.388Z,4.10
2022-11-25T03:26:36.010Z,3.93
2022-11-25T03:27:07.440Z,4.03
2022-11-25T03:27:39.289Z,3.80
2022-11-25T03:28:10.751Z,4.22
2022-11-25T03:28:42.181Z,3.40
2022-11-25T03:29:13.560Z,4.40
2022-11-25T03:29:45.112Z,4.53
2022-11-25T03:30:18.267Z,3.92
2022-11-25T03:30:49.776Z,3.83
2022-11-25T03:31:21.359Z,4.03
2022-11-25T03:31:53.051Z,3.50
2022-11-25T03:32:24.434Z,4.10
2022-11-25T03:32:56.089Z,3.17
2022-11-25T03:33:27.515Z,3.38
2022-11-25T03:33:58.893Z,3.60
2022-11-25T03:34:30.284Z,4.30
2022-11-25T03:35:01.843Z,4.18
2022-11-25T03:35:33.359Z,3.92
2022-11-25T03:36:04.916Z,4.53
2022-11-25T03:36:36.544Z,3.58
2022-11-25T03:37:08.363Z,4.13
2022-11-25T03:37:42.651Z,3.35
2022-11-25T03:38:14.067Z,3.88
2022-11-25T03:38:45.617Z,4.55
2022-11-25T03:39:17.003Z,3.97
2022-11-25T03:39:48.337Z,3.70
2022-11-25T03:40:19.879Z,4.78
2022-11-25T03:40:51.271Z,4.78
2022-11-25T03:41:22.706Z,4.43
2022-11-25T03:41:54.194Z,5.30
2022-11-25T03:42:25.619Z,3.80
2022-11-25T03:42:57.115Z,5.47
2022-11-25T03:43:28.551Z,5.30
2022-11-25T03:43:59.991Z,5.20
2022-11-25T03:44:31.490Z,4.32
2022-11-25T03:45:02.968Z,5.03
2022-11-25T03:45:34.438Z,3.72
2022-11-25T03:46:06.097Z,5.22
2022-11-25T03:46:37.583Z,3.40
2022-11-25T03:47:09.292Z,4.38
2022-11-25T03:47:41.488Z,5.78
2022-11-25T03:48:12.899Z,4.50
2022-11-25T03:48:44.418Z,3.97
2022-11-25T03:49:15.796Z,5.15
2022-11-25T03:49:47.246Z,3.78
2022-11-25T03:50:18.730Z,4.07
2022-11-25T03:50:50.154Z,4.63
2022-11-25T03:51:21.702Z,3.97
2022-11-25T03:51:55.099Z,3.45
2022-11-25T03:52:26.536Z,3.80
2022-11-25T03:52:57.969Z,4.78
2022-11-25T03:53:29.389Z,4.78
2022-11-25T03:54:00.781Z,3.92
2022-11-25T03:54:32.270Z,4.18
2022-11-25T03:55:04.029Z,3.40
2022-11-25T03:55:35.457Z,4.22
2022-11-25T03:56:07.299Z,4.88
2022-11-25T03:56:38.694Z,4.70
2022-11-25T03:57:10.289Z,4.87
2022-11-25T03:57:41.726Z,4.00
2022-11-25T03:58:13.299Z,5.18
2022-11-25T03:58:44.707Z,4.15
2022-11-25T03:59:16.117Z,4.75
2022-11-25T03:59:47.617Z,5.45
2022-11-25T04:00:19.129Z,4.70
2022-11-25T04:00:50.751Z,4.00
2022-11-25T04:01:22.429Z,4.07
2022-11-25T04:01:53.888Z,4.85
2022-11-25T04:02:25.412Z,4.30
2022-11-25T04:02:56.889Z,3.90
2022-11-25T04:03:28.726Z,5.00
2022-11-25T04:04:00.202Z,4.88
2022-11-25T04:04:31.647Z,4.43
2022-11-25T04:05:03.583Z,5.50
2022-11-25T04:05:35.145Z,4.95
2022-11-25T04:06:15.511Z,4.70
2022-11-25T04:06:46.971Z,4.40
2022-11-25T04:07:18.487Z,4.22
2022-11-25T04:07:53.579Z,5.30
2022-11-25T04:08:29.217Z,6.30
2022-11-25T04:09:01.042Z,4.75
2022-11-25T04:09:32.428Z,5.20
2022-11-25T04:10:04.125Z,4.78
2022-11-25T04:10:35.665Z,4.53
2022-11-25T04:11:07.213Z,4.40
2022-11-25T04:11:38.707Z,4.88
2022-11-25T04:12:10.861Z,4.20
2022-11-25T04:12:42.244Z,4.25
2022-11-25T04:13:13.729Z,4.80
2022-11-25T04:13:45.120Z,5.07
2022-11-25T04:14:16.749Z,5.60
2022-11-25T04:14:48.285Z,6.60
2022-11-25T04:15:19.832Z,4.88
2022-11-25T04:15:51.424Z,4.03
2022-11-25T04:16:23.617Z,4.13
2022-11-25T04:16:55.207Z,6.07
2022-11-25T04:17:26.857Z,5.53
2022-11-25T04:17:58.360Z,5.93
2022-11-25T04:18:29.844Z,4.68
2022-11-25T04:19:01.273Z,6.68
2022-11-25T04:19:32.864Z,4.60
2022-11-25T04:20:04.559Z,4.38
2022-11-25T04:20:36.042Z,5.20
2022-11-25T04:21:07.485Z,6.35
2022-11-25T04:21:38.982Z,6.85
2022-11-25T04:22:10.525Z,5.88
2022-11-25T04:22:42.168Z,6.03
2022-11-25T04:23:14.229Z,5.13
2022-11-25T04:23:45.659Z,6.13
2022-11-25T04:24:17.053Z,5.97
2022-11-25T04:24:48.519Z,4.68
2022-11-25T04:25:20.022Z,5.05
2022-11-25T04:25:51.431Z,5.50
2022-11-25T04:26:22.784Z,4.57
2022-11-25T04:26:54.437Z,4.90
2022-11-25T04:27:25.863Z,4.40
2022-11-25T04:27:57.324Z,5.68
2022-11-25T04:28:28.690Z,4.88
2022-11-25T04:29:00.112Z,5.22
2022-11-25T04:29:31.765Z,4.68
2022-11-25T04:30:03.456Z,5.07
2022-11-25T04:30:34.932Z,5.22
2022-11-25T04:31:07.524Z,4.88
2022-11-25T04:31:38.989Z,5.55
2022-11-25T04:32:10.443Z,5.23
2022-11-25T04:32:41.881Z,5.95
2022-11-25T04:33:13.355Z,5.53
2022-11-25T04:33:49.653Z,6.25
2022-11-25T04:34:23.714Z,6.15
2022-11-25T04:34:55.164Z,4.95
2022-11-25T04:35:26.635Z,4.75
2022-11-25T04:35:58.101Z,7.38
2022-11-25T04:36:29.568Z,4.72
2022-11-25T04:37:01.058Z,6.95
2022-11-25T04:37:32.536Z,5.07
2022-11-25T04:38:03.972Z,5.45
2022-11-25T04:38:35.408Z,6.30
2022-11-25T04:39:06.866Z,6.38
2022-11-25T04:39:38.330Z,4.97
2022-11-25T04:40:09.978Z,5.45
2022-11-25T04:40:41.465Z,6.07
2022-11-25T04:41:12.899Z,6.50
2022-11-25T04:41:44.336Z,6.05
2022-11-25T04:42:15.707Z,6.10
2022-11-25T04:42:47.165Z,5.60
2022-11-25T04:43:18.656Z,6.78
2022-11-25T04:43:50.083Z,4.63
2022-11-25T04:44:21.535Z,5.70
2022-11-25T04:45:20.859Z,5.80
2022-11-25T04:46:12.650Z,6.07
2022-11-25T04:46:37.600Z,5.57
2022-11-25T04:47:09.208Z,5.60
2022-11-25T04:47:41.152Z,5.15
2022-11-25T04:48:12.594Z,5.67
2022-11-25T04:48:44.034Z,4.63
2022-11-25T04:49:15.411Z,5.55
2022-11-25T04:49:46.856Z,6.80
2022-11-25T04:50:20.103Z,5.15
2022-11-25T04:50:51.570Z,5.35
2022-11-25T04:51:22.959Z,6.07
2022-11-25T04:51:54.341Z,6.88
2022-11-25T04:52:26.404Z,6.25
2022-11-25T04:52:57.799Z,4.65
2022-11-25T04:53:29.220Z,5.97
2022-11-25T04:54:00.656Z,5.85
2022-11-25T04:54:32.210Z,6.10
2022-11-25T04:55:03.839Z,7.55
2022-11-25T04:55:35.271Z,4.90
2022-11-25T04:56:06.834Z,5.43
2022-11-25T04:56:38.312Z,5.63
2022-11-25T04:57:12.726Z,4.43
2022-11-25T04:57:44.262Z,5.45
2022-11-25T04:58:16.220Z,4.88
2022-11-25T04:58:47.862Z,5.97
2022-11-25T04:59:19.347Z,5.93
2022-11-25T04:59:50.773Z,6.18
2022-11-25T05:00:22.411Z,6.32
2022-11-25T05:00:53.910Z,5.85
2022-11-25T05:01:25.444Z,5.80
2022-11-25T05:01:57.037Z,6.00
2022-11-25T05:02:28.772Z,5.00
2022-11-25T05:03:00.318Z,5.13
2022-11-25T05:03:31.698Z,6.55
2022-11-25T05:04:03.147Z,4.93
2022-11-25T05:04:34.886Z,4.70
2022-11-25T05:05:06.726Z,5.53
2022-11-25T05:05:38.469Z,5.22
2022-11-25T05:06:10.129Z,6.03
2022-11-25T05:06:41.558Z,5.43
2022-11-25T05:07:13.231Z,5.55
2022-11-25T05:07:44.752Z,4.70
2022-11-25T05:08:16.268Z,5.00
2022-11-25T05:08:51.108Z,4.55
2022-11-25T05:09:22.525Z,5.32
2022-11-25T05:09:54.188Z,5.03
2022-11-25T05:10:25.626Z,4.95
2022-11-25T05:10:58.738Z,4.97
2022-11-25T05:11:30.220Z,5.85
2022-11-25T05:12:01.754Z,4.78
2022-11-25T05:12:33.249Z,5.38
2022-11-25T05:13:04.661Z,6.05
2022-11-25T05:13:36.272Z,5.43
2022-11-25T05:14:07.742Z,6.88
2022-11-25T05:14:39.505Z,5.53
2022-11-25T05:15:11.122Z,5.22
2022-11-25T05:15:42.554Z,5.57
2022-11-25T05:16:16.888Z,6.63
2022-11-25T05:16:48.434Z,5.35
2022-11-25T05:17:25.710Z,6.60
2022-11-25T05:17:57.261Z,5.85
2022-11-25T05:18:28.731Z,5.10
2022-11-25T05:19:00.291Z,5.85
2022-11-25T05:19:31.767Z,5.47
2022-11-25T05:20:03.615Z,5.30
2022-11-25T05:20:35.138Z,5.60
2022-11-25T05:21:06.657Z,6.15
2022-11-25T05:21:38.147Z,5.00
2022-11-25T05:22:16.802Z,5.20
2022-11-25T05:22:48.281Z,4.43
2022-11-25T05:23:19.761Z,4.72
2022-11-25T05:23:55.715Z,4.80
2022-11-25T05:24:27.461Z,5.97
2022-11-25T05:24:59.029Z,5.33
2022-11-25T05:25:30.465Z,5.03
2022-11-25T05:26:03.425Z,5.53
2022-11-25T05:26:34.810Z,7.05
2022-11-25T05:27:06.473Z,5.00
2022-11-25T05:27:37.880Z,5.80
2022-11-25T05:28:09.241Z,5.83
2022-11-25T05:28:40.736Z,5.70
2022-11-25T05:29:12.176Z,5.15
2022-11-25T05:29:43.682Z,5.38
2022-11-25T05:30:15.154Z,5.88
2022-11-25T05:30:46.575Z,4.70
2022-11-25T05:31:18.117Z,4.68
2022-11-25T05:31:49.574Z,4.82
2022-11-25T05:32:20.967Z,4.78
2022-11-25T05:32:52.444Z,5.17
2022-11-25T05:33:24.343Z,5.93
2022-11-25T05:33:55.776Z,4.65
2022-11-25T05:34:27.263Z,6.28
2022-11-25T05:34:58.725Z,6.47
2022-11-25T05:35:30.160Z,5.30
2022-11-25T05:36:02.655Z,5.13
2022-11-25T05:36:34.146Z,5.67
2022-11-25T05:37:05.905Z,5.40
2022-11-25T05:37:37.311Z,5.22
2022-11-25T05:38:08.730Z,6.07
2022-11-25T05:38:40.096Z,5.30
2022-11-25T05:39:11.550Z,5.25
2022-11-25T05:39:42.991Z,5.68
2022-11-25T05:40:14.765Z,4.28
2022-11-25T05:40:46.213Z,5.85
2022-11-25T05:41:17.647Z,6.55
2022-11-25T05:41:49.094Z,4.22
2022-11-25T05:42:20.518Z,5.65
2022-11-25T05:42:52.024Z,6.15
2022-11-25T05:43:23.409Z,5.90
2022-11-25T05:43:54.945Z,5.75
2022-11-25T05:44:26.528Z,5.28
2022-11-25T05:44:57.907Z,6.80
2022-11-25T05:45:29.343Z,4.90
2022-11-25T05:46:04.378Z,5.85
2022-11-25T05:46:35.911Z,5.82
2022-11-25T05:47:07.395Z,6.07
2022-11-25T05:47:38.886Z,5.22
2022-11-25T05:48:10.319Z,6.18
2022-11-25T05:48:41.753Z,5.53
2022-11-25T05:49:13.629Z,4.95
2022-11-25T05:49:45.089Z,4.30
2022-11-25T05:50:16.565Z,4.65
2022-11-25T05:50:48.161Z,4.88
2022-11-25T05:51:19.602Z,4.70
2022-11-25T05:51:51.049Z,4.38
2022-11-25T05:52:22.544Z,4.63
2022-11-25T05:52:54.033Z,4.35
2022-11-25T05:53:25.443Z,4.78
2022-11-25T05:53:57.382Z,5.63
2022-11-25T05:54:28.792Z,4.28
2022-11-25T05:55:00.195Z,5.85
2022-11-25T05:55:31.670Z,5.18
2022-11-25T05:56:05.202Z,5.10
2022-11-25T05:56:36.798Z,5.18
2022-11-25T05:57:08.241Z,4.05
2022-11-25T05:57:39.656Z,6.00
2022-11-25T05:58:11.128Z,3.65
2022-11-25T05:58:42.675Z,4.30
2022-11-25T05:59:14.075Z,4.63
2022-11-25T05:59:45.490Z,4.25
2022-11-25T06:00:17.870Z,5.35
2022-11-25T06:00:51.700Z,5.10
2022-11-25T06:01:23.147Z,4.80
2022-11-25T06:01:54.555Z,4.75
2022-11-25T06:02:26.069Z,5.32
2022-11-25T06:02:57.633Z,5.70
2022-11-25T06:03:29.322Z,5.63
2022-11-25T06:04:01.267Z,5.25
2022-11-25T06:04:32.720Z,4.35
2022-11-25T06:05:04.235Z,5.63
2022-11-25T06:05:35.614Z,5.20
2022-11-25T06:06:07.651Z,4.78
2022-11-25T06:06:39.038Z,4.82
2022-11-25T06:07:10.480Z,6.47
2022-11-25T06:07:42.006Z,5.20
2022-11-25T06:08:13.423Z,4.53
2022-11-25T06:08:45.153Z,6.32
2022-11-25T06:09:16.522Z,4.60
2022-11-25T06:09:47.999Z,5.35
2022-11-25T06:10:19.512Z,5.65
2022-11-25T06:10:51.189Z,4.75
2022-11-25T06:11:22.643Z,4.60
2022-11-25T06:11:54.021Z,5.25
2022-11-25T06:12:25.496Z,4.88
2022-11-25T06:12:56.892Z,4.87
2022-11-25T06:13:28.316Z,5.38
2022-11-25T06:13:59.704Z,5.28
2022-11-25T06:14:31.236Z,4.50
2022-11-25T06:15:02.605Z,5.93
2022-11-25T06:15:34.043Z,5.03
2022-11-25T06:16:09.536Z,4.97
2022-11-25T06:16:41.040Z,5.00
2022-11-25T06:17:12.556Z,4.93
2022-11-25T06:17:43.988Z,4.55
2022-11-25T06:18:16.325Z,5.22
2022-11-25T06:18:47.748Z,4.55
2022-11-25T06:19:19.096Z,4.80
2022-11-25T06:19:50.502Z,4.82
2022-11-25T06:20:21.908Z,4.32
2022-11-25T06:20:59.501Z,3.90
2022-11-25T06:21:31.109Z,4.88
2022-11-25T06:22:02.540Z,3.90
2022-11-25T06:22:34.023Z,4.35
2022-11-25T06:23:05.771Z,5.30
2022-11-25T06:23:37.504Z,4.63
2022-11-25T06:24:08.958Z,4.90
2022-11-25T06:24:40.434Z,4.97
2022-11-25T06:25:11.886Z,5.35
2022-11-25T06:25:43.268Z,4.85
2022-11-25T06:26:14.645Z,5.30
2022-11-25T06:26:46.283Z,3.87
2022-11-25T06:27:17.712Z,4.32
2022-11-25T06:28:12.033Z,5.18
2022-11-25T06:28:40.444Z,5.47
2022-11-25T06:29:11.822Z,5.28
2022-11-25T06:29:43.240Z,5.63
2022-11-25T06:30:14.901Z,5.57
2022-11-25T06:30:46.327Z,4.38
2022-11-25T06:31:20.094Z,4.38
2022-11-25T06:31:51.490Z,4.80
2022-11-25T06:32:23.002Z,4.95
2022-11-25T06:32:54.494Z,4.03
2022-11-25T06:33:25.897Z,5.07
2022-11-25T06:33:57.226Z,4.28
2022-11-25T06:34:28.595Z,5.50
2022-11-25T06:34:59.951Z,5.20
2022-11-25T06:35:31.306Z,5.05
2022-11-25T06:36:03.965Z,4.70
2022-11-25T06:36:35.317Z,5.47
2022-11-25T06:37:06.694Z,4.75
2022-11-25T06:37:38.200Z,5.40
2022-11-25T06:38:09.566Z,5.72
2022-11-25T06:38:40.997Z,6.57
2022-11-25T06:39:12.381Z,4.90
2022-11-25T06:39:43.739Z,5.28
2022-11-25T06:40:15.206Z,4.50
2022-11-25T06:40:46.575Z,4.00
2022-11-25T06:41:18.239Z,5.20
2022-11-25T06:41:49.661Z,5.10
2022-11-25T06:42:21.011Z,5.47
2022-11-25T06:42:52.503Z,4.57
2022-11-25T06:43:23.946Z,5.75
2022-11-25T06:43:55.469Z,4.13
2022-11-25T06:44:27.046Z,4.82
2022-11-25T06:44:58.462Z,4.65
2022-11-25T06:45:29.996Z,5.65
2022-11-25T06:46:08.137Z,5.57
2022-11-25T06:46:39.661Z,5.10
2022-11-25T06:47:11.119Z,5.00
2022-11-25T06:47:42.523Z,4.55
2022-11-25T06:48:13.916Z,4.55
2022-11-25T06:48:45.375Z,5.22
2022-11-25T06:49:16.821Z,4.85
2022-11-25T06:49:48.665Z,5.75
2022-11-25T06:50:20.066Z,5.35
2022-11-25T06:50:58.250Z,5.78
2022-11-25T06:51:29.604Z,5.22
2022-11-25T06:52:01.025Z,6.80
2022-11-25T06:52:32.549Z,4.85
2022-11-25T06:53:03.925Z,5.68
2022-11-25T06:53:35.564Z,5.75
2022-11-25T06:54:06.968Z,5.15
2022-11-25T06:54:38.414Z,5.45
2022-11-25T06:55:09.934Z,6.30
2022-11-25T06:55:41.286Z,6.05
2022-11-25T06:56:12.625Z,7.55
2022-11-25T06:56:44.035Z,5.47
2022-11-25T06:57:17.112Z,5.25
2022-11-25T06:57:48.526Z,6.03
2022-11-25T06:58:34.972Z,5.30
2022-11-25T06:59:07.495Z,4.43
2022-11-25T06:59:39.182Z,5.80
2022-11-25T07:00:10.746Z,6.18
2022-11-25T07:00:42.093Z,5.93
2022-11-25T07:01:15.645Z,5.22
2022-11-25T07:01:47.259Z,5.90
2022-11-25T07:02:18.702Z,5.93
2022-11-25T07:02:50.317Z,6.63
2022-11-25T07:03:21.880Z,5.38
2022-11-25T07:03:54.719Z,5.60
2022-11-25T07:04:26.102Z,5.78
2022-11-25T07:04:57.524Z,5.55
2022-11-25T07:05:28.894Z,6.00
2022-11-25T07:06:00.306Z,6.95
2022-11-25T07:06:32.339Z,6.10
2022-11-25T07:07:04.113Z,5.18
2022-11-25T07:07:35.993Z,6.97
2022-11-25T07:08:07.378Z,6.10
2022-11-25T07:08:38.732Z,6.35
2022-11-25T07:09:10.109Z,4.97
2022-11-25T07:09:41.465Z,4.50